Time;durP1;ratioP1;P1;durP2;ratioP2;P2;SDS_P1;SDS_P2;PMS_P1;PMS_P2;Temp;Humidity;BMP_temperature;BMP_pressure;BME280_temperature;BME280_humidity;BME280_pressure;Samples;Min_cycle;Max_cycle;Signal;HPM_P1;HPM_P2
2022/03/18 00:02:22;;;;;;;22.77;5.72;;;9.50;99.90;;;;;;6280703;22;20030;-89
2022/03/18 00:04:49;;;;;;;15.60;5.15;;;9.50;99.90;;;;;;6280633;22;20005;-89
2022/03/18 00:07:15;;;;;;;19.08;5.82;;;9.50;99.90;;;;;;6280352;22;20090;-88
2022/03/18 00:09:43;;;;;;;18.95;5.22;;;9.50;99.90;;;;;;6280263;22;20034;-88
2022/03/18 00:12:10;;;;;;;20.33;5.03;;;9.60;99.90;;;;;;6280864;22;20014;-88
2022/03/18 00:14:40;;;;;;;24.27;5.05;;;9.60;99.90;;;;;;6279591;22;20080;-87
2022/03/18 00:17:07;;;;;;;17.45;4.07;;;9.60;99.90;;;;;;6279830;22;20346;-88
2022/03/18 00:19:33;;;;;;;22.02;4.80;;;9.60;99.90;;;;;;6279903;22;20003;-88
2022/03/18 00:22:01;;;;;;;18.38;4.97;;;9.60;99.90;;;;;;6279780;22;20061;-88
2022/03/18 00:24:27;;;;;;;21.55;4.40;;;9.60;99.90;;;;;;6279781;22;20011;-88
2022/03/18 00:26:53;;;;;;;31.70;5.75;;;9.60;99.90;;;;;;6280086;22;19999;-87
2022/03/18 00:29:19;;;;;;;23.48;5.13;;;9.50;99.90;;;;;;6280044;22;20014;-88
2022/03/18 00:31:45;;;;;;;16.75;4.00;;;9.50;99.90;;;;;;6279809;22;19999;-88
2022/03/18 00:34:12;;;;;;;20.05;4.05;;;9.40;99.90;;;;;;6280064;22;20430;-88
2022/03/18 00:36:38;;;;;;;21.20;5.07;;;9.40;99.90;;;;;;6254872;22;20054;-88
2022/03/18 00:39:03;;;;;;;22.90;4.63;;;9.40;99.90;;;;;;6280108;22;19999;-87
2022/03/18 00:41:30;;;;;;;28.10;5.55;;;9.30;99.90;;;;;;6280028;22;20000;-89
2022/03/18 00:43:56;;;;;;;20.27;4.97;;;9.30;99.90;;;;;;6280253;22;20030;-89
2022/03/18 00:46:23;;;;;;;26.27;4.57;;;9.30;99.90;;;;;;6279934;22;20004;-88
2022/03/18 00:54:18;;;;;;;20.95;4.32;;;9.20;99.90;;;;;;6307186;22;20069;-89
2022/03/18 00:56:45;;;;;;;19.02;4.40;;;9.10;99.90;;;;;;6279952;22;20419;-89
2022/03/18 00:59:11;;;;;;;25.80;5.32;;;9.10;99.90;;;;;;6279676;22;20003;-88
2022/03/18 01:01:37;;;;;;;23.20;4.38;;;9.00;99.90;;;;;;6280284;22;20340;-89
2022/03/18 01:04:03;;;;;;;17.83;4.15;;;9.00;99.90;;;;;;6279383;22;20015;-89
2022/03/18 01:06:31;;;;;;;22.58;5.68;;;8.90;99.90;;;;;;6279690;22;20458;-88
2022/03/18 01:08:56;;;;;;;12.55;3.30;;;8.90;99.90;;;;;;6279599;22;20014;-88
2022/03/18 01:11:22;;;;;;;22.73;4.32;;;8.80;99.90;;;;;;6280347;22;20003;-87
2022/03/18 01:13:48;;;;;;;26.92;4.75;;;8.80;99.90;;;;;;6280702;22;20068;-88
2022/03/18 01:16:14;;;;;;;17.15;4.28;;;8.80;99.90;;;;;;6280333;22;20423;-88
2022/03/18 01:18:39;;;;;;;17.88;4.70;;;8.80;99.90;;;;;;6279810;22;20090;-88
2022/03/18 01:21:06;;;;;;;14.95;3.53;;;8.70;99.90;;;;;;6280176;22;20006;-87
2022/03/18 01:23:31;;;;;;;21.30;4.25;;;8.70;99.90;;;;;;6283584;22;20019;-90
2022/03/18 01:25:57;;;;;;;19.02;3.90;;;8.70;99.90;;;;;;6284850;22;20031;-88
2022/03/18 01:28:23;;;;;;;20.05;4.45;;;8.60;99.90;;;;;;6284625;22;20014;-87
2022/03/18 01:30:49;;;;;;;18.55;4.43;;;8.60;99.90;;;;;;6290145;22;20059;-88
2022/03/18 01:33:15;;;;;;;12.73;3.78;;;8.60;99.90;;;;;;6301090;22;19999;-88
2022/03/18 01:35:41;;;;;;;14.18;3.53;;;8.60;99.90;;;;;;6299433;22;20014;-88
2022/03/18 01:38:07;;;;;;;18.77;3.85;;;8.60;99.90;;;;;;6297402;22;20014;-88
2022/03/18 01:40:33;;;;;;;12.18;4.50;;;8.60;99.90;;;;;;6296852;22;20007;-88
2022/03/18 01:43:01;;;;;;;16.15;4.07;;;8.60;99.90;;;;;;6292915;22;20026;-89
2022/03/18 01:45:27;;;;;;;20.95;4.43;;;8.60;99.90;;;;;;6290334;22;20003;-88
2022/03/18 01:47:53;;;;;;;13.63;3.40;;;8.50;99.90;;;;;;6285159;22;20011;-89
2022/03/18 01:50:19;;;;;;;15.63;3.97;;;8.50;99.90;;;;;;6284256;22;20053;-88
2022/03/18 01:52:45;;;;;;;14.82;4.05;;;8.40;99.90;;;;;;6283641;22;20011;-89
2022/03/18 01:55:12;;;;;;;20.80;4.60;;;8.40;99.90;;;;;;6283854;22;20057;-89
2022/03/18 01:57:39;;;;;;;18.60;5.07;;;8.30;99.90;;;;;;6312072;22;20370;-88
2022/03/18 02:00:06;;;;;;;22.10;3.72;;;8.20;99.90;;;;;;6311255;22;19999;-89
2022/03/18 02:02:32;;;;;;;16.15;3.97;;;8.10;99.90;;;;;;6281807;22;20078;-88
2022/03/18 02:04:58;;;;;;;11.52;4.10;;;8.00;99.90;;;;;;6281931;22;20003;-90
2022/03/18 02:07:25;;;;;;;12.48;4.45;;;8.00;99.90;;;;;;6281845;22;20007;-89
2022/03/18 02:09:51;;;;;;;17.50;4.55;;;7.90;99.90;;;;;;6281941;22;20423;-88
2022/03/18 02:12:17;;;;;;;27.73;5.72;;;7.80;99.90;;;;;;6281501;22;20105;-89
2022/03/18 02:14:45;;;;;;;22.15;5.22;;;7.80;99.90;;;;;;6281830;22;20331;-89
2022/03/18 02:17:13;;;;;;;13.38;4.30;;;7.60;99.90;;;;;;6281368;22;20031;-88
2022/03/18 02:19:41;;;;;;;12.00;3.72;;;7.60;99.90;;;;;;6281627;22;20064;-89
2022/03/18 02:22:15;;;;;;;15.85;5.18;;;7.50;99.90;;;;;;6281691;22;20010;-89
2022/03/18 02:24:42;;;;;;;21.63;5.15;;;7.50;99.90;;;;;;6281709;22;20045;-89
2022/03/18 02:27:08;;;;;;;17.20;4.10;;;7.40;99.90;;;;;;6281942;22;19999;-88
2022/03/18 02:29:34;;;;;;;12.52;4.43;;;7.40;99.90;;;;;;6283073;22;20004;-89
2022/03/18 02:32:01;;;;;;;17.45;4.03;;;7.30;99.90;;;;;;6282689;22;20035;-89
2022/03/18 02:34:28;;;;;;;21.48;6.20;;;7.30;99.90;;;;;;6284727;22;20007;-89
2022/03/18 02:36:54;;;;;;;17.83;5.18;;;7.30;99.90;;;;;;6284518;22;20052;-88
2022/03/18 02:39:20;;;;;;;17.48;4.50;;;7.20;99.90;;;;;;6294188;22;20015;-89
2022/03/18 02:41:46;;;;;;;15.48;4.30;;;7.10;99.90;;;;;;6308158;22;20022;-88
2022/03/18 02:44:11;;;;;;;14.10;4.32;;;7.10;99.90;;;;;;6306847;22;20023;-87
2022/03/18 02:46:37;;;;;;;19.85;5.25;;;7.10;99.90;;;;;;6286977;22;20041;-89
2022/03/18 02:49:04;;;;;;;15.50;5.05;;;7.00;99.90;;;;;;6283983;22;20034;-89
2022/03/18 02:51:30;;;;;;;22.30;5.32;;;7.00;99.90;;;;;;6282974;22;20446;-88
2022/03/18 02:53:57;;;;;;;17.08;5.20;;;6.90;99.90;;;;;;6282557;22;20395;-88
2022/03/18 02:56:23;;;;;;;13.38;4.53;;;6.80;99.90;;;;;;6281339;22;20019;-88
2022/03/18 02:58:49;;;;;;;16.65;4.57;;;6.80;99.90;;;;;;6281930;22;20057;-89
2022/03/18 03:01:15;;;;;;;10.13;4.05;;;6.70;99.90;;;;;;6282285;22;20011;-89
2022/03/18 03:03:41;;;;;;;18.27;4.30;;;6.60;99.90;;;;;;6282407;22;20334;-89
2022/03/18 03:08:51;;;;;;;12.10;4.57;;;6.50;99.90;;;;;;6309061;22;20081;-90
2022/03/18 03:11:16;;;;;;;21.45;4.78;;;6.40;99.90;;;;;;6281258;22;20086;-89
2022/03/18 03:13:43;;;;;;;21.40;5.00;;;6.30;99.90;;;;;;6280838;22;19999;-89
2022/03/18 03:16:08;;;;;;;17.67;5.22;;;6.20;99.90;;;;;;6281594;22;20522;-88
2022/03/18 03:18:35;;;;;;;15.55;4.35;;;6.20;99.90;;;;;;6281778;22;20023;-89
2022/03/18 03:21:01;;;;;;;17.20;5.32;;;6.10;99.90;;;;;;6281495;22;20003;-88
2022/03/18 03:23:27;;;;;;;14.23;4.72;;;6.10;99.90;;;;;;6281492;22;20060;-88
2022/03/18 03:25:54;;;;;;;17.73;5.00;;;6.10;99.90;;;;;;6281776;22;20351;-89
2022/03/18 03:28:20;;;;;;;17.27;4.88;;;6.10;99.90;;;;;;6281265;22;20003;-89
2022/03/18 03:30:46;;;;;;;27.65;7.22;;;6.10;99.90;;;;;;6281599;22;20023;-89
2022/03/18 03:33:12;;;;;;;22.48;4.85;;;6.10;99.90;;;;;;6281966;22;20022;-89
2022/03/18 03:35:40;;;;;;;17.80;5.75;;;6.10;99.90;;;;;;6281167;22;20007;-89
2022/03/18 03:38:06;;;;;;;14.85;5.10;;;6.10;99.90;;;;;;6281374;22;20003;-89
2022/03/18 03:40:32;;;;;;;21.17;5.55;;;6.00;99.90;;;;;;6309280;22;20358;-89
2022/03/18 03:42:58;;;;;;;18.35;5.20;;;5.90;99.90;;;;;;6280745;22;20015;-88
2022/03/18 03:45:25;;;;;;;16.15;4.78;;;5.90;99.90;;;;;;6281227;22;20035;-88
2022/03/18 03:47:51;;;;;;;19.33;6.90;;;5.80;99.90;;;;;;6281601;22;20082;-88
2022/03/18 03:50:17;;;;;;;19.27;5.95;;;5.70;99.90;;;;;;6280884;22;20007;-86
2022/03/18 03:52:43;;;;;;;22.38;5.65;;;5.60;99.90;;;;;;6281073;22;20014;-89
2022/03/18 03:55:12;;;;;;;22.05;5.63;;;5.60;99.90;;;;;;6280822;22;20030;-88
2022/03/18 03:57:41;;;;;;;19.80;5.82;;;5.50;99.90;;;;;;6281431;22;20098;-89
2022/03/18 04:00:11;;;;;;;15.38;4.90;;;5.40;99.90;;;;;;6280873;22;20045;-89
2022/03/18 04:02:37;;;;;;;20.30;4.47;;;5.40;99.90;;;;;;6280744;22;20031;-88
2022/03/18 04:05:07;;;;;;;18.20;4.85;;;5.40;99.90;;;;;;6280892;22;20261;-87
2022/03/18 04:07:37;;;;;;;17.35;5.55;;;5.30;99.90;;;;;;6280618;22;20097;-88
2022/03/18 04:10:04;;;;;;;14.53;5.37;;;5.30;99.90;;;;;;6280190;22;20101;-89
2022/03/18 04:12:32;;;;;;;18.52;4.72;;;5.20;99.90;;;;;;6280142;22;20007;-88
2022/03/18 04:14:59;;;;;;;21.80;5.47;;;5.20;99.90;;;;;;6280055;22;20007;-89
2022/03/18 04:17:26;;;;;;;13.80;4.53;;;5.10;99.90;;;;;;6280300;22;20015;-89
2022/03/18 04:19:53;;;;;;;17.58;4.97;;;5.10;99.90;;;;;;6280099;22;19999;-89
2022/03/18 04:22:20;;;;;;;18.10;5.70;;;5.10;99.90;;;;;;6280683;22;20015;-89
2022/03/18 04:24:49;;;;;;;15.75;5.45;;;5.10;99.90;;;;;;6280273;22;20004;-89
2022/03/18 04:27:15;;;;;;;20.90;7.70;;;5.00;99.90;;;;;;6280062;22;20007;-90
2022/03/18 04:29:40;;;;;;;14.30;4.88;;;5.00;99.90;;;;;;6280041;22;20068;-89
2022/03/18 04:32:06;;;;;;;17.90;4.45;;;4.90;99.90;;;;;;6279982;22;20003;-89
2022/03/18 04:34:32;;;;;;;14.48;4.85;;;4.90;99.90;;;;;;6280257;22;20011;-88
2022/03/18 04:36:58;;;;;;;21.55;5.57;;;4.80;99.90;;;;;;6280416;22;20086;-89
2022/03/18 04:39:23;;;;;;;17.30;5.13;;;4.80;99.90;;;;;;6280582;22;20011;-89
2022/03/18 04:41:49;;;;;;;13.55;5.32;;;4.70;99.90;;;;;;6280260;22;20006;-88
2022/03/18 04:44:15;;;;;;;22.98;5.72;;;4.70;99.90;;;;;;6281234;22;20022;-89
2022/03/18 04:46:40;;;;;;;13.68;5.80;;;4.70;99.90;;;;;;6280876;22;20505;-88
2022/03/18 04:49:06;;;;;;;23.17;5.47;;;4.60;99.90;;;;;;6280944;22;20431;-88
2022/03/18 04:51:32;;;;;;;15.77;5.55;;;4.60;99.90;;;;;;6290198;22;20010;-88
2022/03/18 04:53:58;;;;;;;20.85;4.85;;;4.60;99.90;;;;;;6297682;22;20046;-88
2022/03/18 04:59:08;;;;;;;18.52;5.05;;;4.50;99.90;;;;;;6322248;22;20021;-89
2022/03/18 05:01:33;;;;;;;14.35;4.57;;;4.40;99.90;;;;;;6291317;22;20010;-89
2022/03/18 05:03:59;;;;;;;23.60;6.40;;;4.30;99.90;;;;;;6298383;22;20030;-89
2022/03/18 05:06:26;;;;;;;18.48;5.15;;;4.30;99.90;;;;;;6297796;22;20085;-89
2022/03/18 05:08:52;;;;;;;18.92;4.82;;;4.20;99.90;;;;;;6288470;22;20003;-88
2022/03/18 05:11:18;;;;;;;22.15;4.88;;;4.20;99.90;;;;;;6287912;22;20011;-89
2022/03/18 05:13:44;;;;;;;13.60;4.93;;;4.10;99.90;;;;;;6282206;22;20493;-88
2022/03/18 05:16:10;;;;;;;23.60;4.80;;;4.00;99.90;;;;;;6281438;22;20007;-88
2022/03/18 05:18:36;;;;;;;16.42;5.55;;;4.00;99.90;;;;;;6280439;22;20007;-89
2022/03/18 05:21:03;;;;;;;21.55;5.50;;;4.00;99.90;;;;;;6280508;22;20003;-88
2022/03/18 05:23:29;;;;;;;31.50;8.38;;;4.10;99.90;;;;;;6279972;22;20038;-88
2022/03/18 05:25:54;;;;;;;20.98;5.78;;;4.10;99.90;;;;;;6280122;22;20026;-87
2022/03/18 05:28:20;;;;;;;19.73;4.88;;;4.10;99.90;;;;;;6280121;22;20010;-88
2022/03/18 05:30:46;;;;;;;18.30;5.35;;;4.00;99.90;;;;;;6280031;22;20004;-87
2022/03/18 05:33:11;;;;;;;23.17;6.13;;;4.00;99.90;;;;;;6279437;22;20621;-87
2022/03/18 05:35:37;;;;;;;19.77;7.30;;;4.00;99.90;;;;;;6279280;22;20038;-87
2022/03/18 05:38:02;;;;;;;27.40;5.75;;;3.80;99.90;;;;;;6279468;22;20003;-88
2022/03/18 05:40:28;;;;;;;20.13;5.25;;;3.80;99.90;;;;;;6279062;22;20030;-88
2022/03/18 05:42:54;;;;;;;23.30;5.22;;;3.80;99.90;;;;;;6279168;22;20453;-89
2022/03/18 05:45:20;;;;;;;16.88;6.07;;;3.80;99.90;;;;;;6279953;22;20003;-88
2022/03/18 05:47:45;;;;;;;16.20;5.35;;;3.80;99.90;;;;;;6279363;22;20086;-88
2022/03/18 05:50:15;;;;;;;19.05;6.13;;;3.80;99.90;;;;;;6279094;22;20323;-88
2022/03/18 05:52:42;;;;;;;16.83;6.38;;;3.80;99.90;;;;;;6279246;22;20008;-88
2022/03/18 05:55:08;;;;;;;12.15;4.35;;;3.80;99.90;;;;;;6279243;22;19995;-88
2022/03/18 05:57:34;;;;;;;20.65;6.13;;;3.70;99.90;;;;;;6279246;22;20011;-87
2022/03/18 06:00:01;;;;;;;15.40;6.03;;;3.80;99.90;;;;;;6279618;22;19995;-88
2022/03/18 06:02:28;;;;;;;15.32;5.97;;;3.70;99.90;;;;;;6278934;22;20015;-88
2022/03/18 06:04:54;;;;;;;19.25;6.63;;;3.70;99.90;;;;;;6307004;22;20391;-88
2022/03/18 06:07:19;;;;;;;21.05;6.28;;;3.60;99.90;;;;;;6278978;22;20045;-88
2022/03/18 06:12:29;;;;;;;15.95;6.28;;;3.60;99.90;;;;;;6307215;22;20029;-88
2022/03/18 06:14:55;;;;;;;30.52;7.68;;;3.50;99.90;;;;;;6280632;22;20003;-87
2022/03/18 06:17:20;;;;;;;28.98;8.25;;;3.40;99.90;;;;;;6280360;22;20011;-88
2022/03/18 06:19:46;;;;;;;23.80;7.40;;;3.40;99.90;;;;;;6281308;22;20053;-88
2022/03/18 06:22:12;;;;;;;20.77;7.18;;;3.40;99.90;;;;;;6280556;22;20007;-89
2022/03/18 06:24:38;;;;;;;26.25;8.63;;;3.40;99.90;;;;;;6280824;22;20043;-88
2022/03/18 06:27:04;;;;;;;20.27;7.05;;;3.30;99.90;;;;;;6281236;22;20007;-88
2022/03/18 06:29:30;;;;;;;20.63;7.47;;;3.20;99.90;;;;;;6281057;22;20053;-89
2022/03/18 06:31:57;;;;;;;18.80;6.72;;;3.10;99.90;;;;;;6281400;22;20007;-88
2022/03/18 06:34:23;;;;;;;20.77;7.45;;;3.20;99.90;;;;;;6281008;22;20003;-88
2022/03/18 06:36:54;;;;;;;20.45;6.95;;;3.20;99.90;;;;;;6282639;22;20000;-88
2022/03/18 06:39:20;;;;;;;;;;;3.10;99.90;;;;;;6283637;22;20007;-88
2022/03/18 06:41:46;;;;;;;25.13;7.95;;;3.10;99.90;;;;;;6281917;22;19899;-88
2022/03/18 06:44:12;;;;;;;20.33;7.47;;;3.10;99.90;;;;;;6281171;22;20019;-89
2022/03/18 06:46:39;;;;;;;19.67;6.70;;;3.00;99.90;;;;;;6281117;22;20089;-88
2022/03/18 06:49:05;;;;;;;26.67;7.50;;;3.00;99.90;;;;;;6281186;22;20011;-88
2022/03/18 06:51:31;;;;;;;29.00;9.57;;;3.00;99.90;;;;;;6280779;22;20007;-88
2022/03/18 06:53:57;;;;;;;21.88;8.32;;;3.00;99.90;;;;;;6280982;22;20391;-88
2022/03/18 06:56:25;;;;;;;21.17;8.35;;;3.00;99.90;;;;;;6280682;22;20038;-88
2022/03/18 06:58:51;;;;;;;17.67;7.30;;;3.00;99.90;;;;;;6280612;22;19999;-88
2022/03/18 07:01:17;;;;;;;19.55;6.93;;;3.00;99.90;;;;;;6280630;22;20026;-88
2022/03/18 07:03:42;;;;;;;17.85;6.97;;;2.90;99.90;;;;;;6280527;22;20056;-88
2022/03/18 07:06:08;;;;;;;21.90;7.10;;;2.90;99.90;;;;;;6280608;22;20003;-88
2022/03/18 07:08:35;;;;;;;18.92;6.47;;;2.90;99.90;;;;;;6280643;22;20007;-89
2022/03/18 07:11:02;;;;;;;19.67;7.03;;;2.90;99.90;;;;;;6280559;22;20014;-88
2022/03/18 07:13:27;;;;;;;22.52;7.55;;;2.90;99.90;;;;;;6280370;22;20445;-88
2022/03/18 07:15:53;;;;;;;21.08;6.85;;;2.90;99.90;;;;;;6280252;22;20004;-88
2022/03/18 07:18:19;;;;;;;20.90;6.47;;;2.90;99.90;;;;;;6280667;22;20018;-89
2022/03/18 07:20:45;;;;;;;34.30;7.45;;;2.90;99.90;;;;;;6280863;22;20014;-89
2022/03/18 07:23:15;;;;;;;22.52;6.20;;;2.90;99.90;;;;;;6280297;22;20438;-88
2022/03/18 07:25:43;;;;;;;23.25;6.28;;;3.00;99.90;;;;;;6280928;22;20454;-88
2022/03/18 07:28:12;;;;;;;22.20;6.22;;;3.00;99.90;;;;;;6281346;22;20007;-88
2022/03/18 07:30:39;;;;;;;22.95;5.85;;;3.00;99.90;;;;;;6282814;22;20007;-88
2022/03/18 07:33:06;;;;;;;19.58;8.05;;;3.10;99.90;;;;;;6278348;22;20003;-89
2022/03/18 07:35:32;;;;;;;19.23;6.65;;;3.00;99.90;;;;;;6285273;22;20003;-90
2022/03/18 07:37:58;;;;;;;12.45;5.93;;;3.10;99.90;;;;;;6287692;22;20041;-90
2022/03/18 07:40:24;;;;;;;21.33;6.18;;;3.10;99.90;;;;;;6298049;22;20031;-90
2022/03/18 07:42:52;;;;;;;23.95;7.43;;;3.10;99.90;;;;;;6307952;22;20055;-88
2022/03/18 07:45:26;;;;;;;21.08;5.85;;;3.20;99.90;;;;;;6300908;22;20071;-90
2022/03/18 07:47:54;;;;;;;14.95;6.10;;;3.20;99.90;;;;;;6285240;22;20003;-90
2022/03/18 07:50:22;;;;;;;20.17;6.50;;;3.20;99.90;;;;;;6284173;22;20011;-89
2022/03/18 07:52:48;;;;;;;19.75;6.50;;;3.30;99.90;;;;;;6280852;22;20007;-90
2022/03/18 07:55:14;;;;;;;25.42;6.38;;;3.30;99.90;;;;;;6281353;22;20442;-89
2022/03/18 07:57:40;;;;;;;18.42;7.18;;;3.40;99.90;;;;;;6282417;22;20007;-89
2022/03/18 08:00:06;;;;;;;21.77;6.15;;;3.40;99.90;;;;;;6282368;22;19999;-86
2022/03/18 08:02:32;;;;;;;22.08;6.38;;;3.50;99.90;;;;;;6281474;22;20473;-89
2022/03/18 08:04:58;;;;;;;20.08;6.30;;;3.50;99.90;;;;;;6281498;22;20007;-88
2022/03/18 08:07:23;;;;;;;24.83;7.05;;;3.60;99.90;;;;;;6281717;22;20284;-89
2022/03/18 08:09:49;;;;;;;22.35;7.25;;;3.70;99.90;;;;;;6285027;22;20007;-89
2022/03/18 08:12:15;;;;;;;26.35;8.15;;;3.70;99.90;;;;;;6286618;22;20014;-89
2022/03/18 08:14:41;;;;;;;21.90;7.78;;;3.80;99.90;;;;;;6288103;22;20117;-89
2022/03/18 08:17:07;;;;;;;20.13;5.82;;;3.90;99.90;;;;;;6291929;22;20010;-89
2022/03/18 08:19:33;;;;;;;16.05;5.13;;;3.90;99.90;;;;;;6291248;22;20459;-89
2022/03/18 08:22:01;;;;;;;20.77;6.63;;;4.10;99.90;;;;;;6295153;22;20334;-88
2022/03/18 08:24:28;;;;;;;18.27;7.95;;;4.30;99.90;;;;;;6295454;22;20019;-88
2022/03/18 08:26:54;;;;;;;22.50;6.88;;;4.40;99.90;;;;;;6295465;22;20082;-87
2022/03/18 08:29:20;;;;;;;23.30;7.57;;;4.50;99.90;;;;;;6290343;22;20092;-88
2022/03/18 08:31:45;;;;;;;27.42;8.18;;;4.70;99.90;;;;;;6290514;22;20003;-88
2022/03/18 08:34:11;;;;;;;42.10;9.02;;;4.80;99.90;;;;;;6283897;22;20007;-87
2022/03/18 08:36:36;;;;;;;28.95;7.75;;;4.90;99.90;;;;;;6283140;22;20023;-88
2022/03/18 08:39:02;;;;;;;27.52;8.55;;;5.00;99.90;;;;;;6282291;22;20003;-88
2022/03/18 08:41:28;;;;;;;23.85;9.02;;;5.00;99.90;;;;;;6280379;22;20124;-88
2022/03/18 08:43:54;;;;;;;24.13;11.02;;;5.00;99.90;;;;;;6282403;22;20011;-88
2022/03/18 08:46:19;;;;;;;29.05;9.15;;;5.10;99.90;;;;;;6280722;22;19999;-88
2022/03/18 08:48:45;;;;;;;31.42;9.75;;;5.10;99.90;;;;;;6282971;22;20060;-90
2022/03/18 08:51:11;;;;;;;29.83;9.25;;;5.20;99.90;;;;;;6281581;22;20010;-90
2022/03/18 08:53:37;;;;;;;27.35;8.90;;;5.20;99.90;;;;;;6281782;22;20007;-89
2022/03/18 08:56:03;;;;;;;28.63;8.75;;;5.30;99.90;;;;;;6282229;22;20003;-90
2022/03/18 08:58:29;;;;;;;21.10;7.50;;;5.30;99.90;;;;;;6281248;22;20007;-90
2022/03/18 09:00:54;;;;;;;25.95;8.77;;;5.40;99.90;;;;;;6281661;22;20087;-90
2022/03/18 09:03:20;;;;;;;30.08;9.40;;;5.50;99.90;;;;;;6281502;22;20015;-89
2022/03/18 09:05:46;;;;;;;25.52;9.93;;;5.60;99.90;;;;;;6282299;22;20007;-89
2022/03/18 09:08:14;;;;;;;28.35;8.82;;;5.60;99.90;;;;;;6281573;22;20023;-89
2022/03/18 09:10:40;;;;;;;25.15;8.73;;;5.70;99.90;;;;;;6281626;22;20017;-88
2022/03/18 09:13:07;;;;;;;22.23;8.52;;;5.80;99.90;;;;;;6281373;22;20007;-89
2022/03/18 09:15:33;;;;;;;31.67;10.50;;;5.90;99.90;;;;;;6282557;22;20006;-90
2022/03/18 09:17:59;;;;;;;28.40;10.25;;;6.00;99.90;;;;;;6282920;22;20010;-89
2022/03/18 09:20:25;;;;;;;30.90;9.18;;;6.00;99.90;;;;;;6283129;22;20050;-88
2022/03/18 09:22:51;;;;;;;25.75;9.32;;;6.10;99.90;;;;;;6280954;22;20053;-89
2022/03/18 09:25:18;;;;;;;38.58;8.68;;;6.20;99.90;;;;;;6280881;22;20011;-89
2022/03/18 09:27:44;;;;;;;25.63;7.93;;;6.30;99.90;;;;;;6280861;22;20418;-88
2022/03/18 09:30:11;;;;;;;32.00;9.05;;;6.50;99.90;;;;;;6280603;22;20169;-90
2022/03/18 09:32:38;;;;;;;24.63;7.82;;;6.70;99.90;;;;;;6274691;22;20027;-89
2022/03/18 09:35:05;;;;;;;32.90;8.38;;;6.90;99.90;;;;;;6278395;22;20490;-90
2022/03/18 09:37:31;;;;;;;28.73;8.80;;;7.10;99.90;;;;;;6281769;22;20010;-88
2022/03/18 09:39:57;;;;;;;30.02;7.57;;;7.30;99.90;;;;;;6279066;22;20007;-90
2022/03/18 09:42:23;;;;;;;25.05;7.10;;;7.50;99.90;;;;;;6276992;22;20425;-92
2022/03/18 09:44:48;;;;;;;26.13;6.95;;;7.70;99.90;;;;;;6275212;22;20062;-90
2022/03/18 09:47:15;;;;;;;24.58;6.15;;;7.90;99.90;;;;;;6279605;22;20133;-91
2022/03/18 09:49:43;;;;;;;27.88;5.93;;;8.20;99.90;;;;;;6282780;22;20380;-91
2022/03/18 09:52:10;;;;;;;30.45;6.95;;;8.40;99.90;;;;;;6283440;22;20000;-90
2022/03/18 09:54:35;;;;;;;29.25;5.97;;;8.60;99.90;;;;;;6283639;22;20515;-91
2022/03/18 09:57:02;;;;;;;26.67;5.82;;;8.90;99.90;;;;;;6284499;22;19995;-91
2022/03/18 09:59:28;;;;;;;23.63;6.88;;;9.20;99.90;;;;;;6281423;22;20038;-90
2022/03/18 10:02:29;;;;;;;25.83;5.53;;;9.50;99.90;;;;;;6282653;22;20452;-90
2022/03/18 10:05:00;;;;;;;26.75;6.15;;;9.80;99.90;;;;;;6282761;22;20073;-89
2022/03/18 10:07:27;;;;;;;20.58;5.65;;;10.10;99.90;;;;;;6282929;22;20292;-90
2022/03/18 10:10:15;;;;;;;21.60;5.38;;;10.40;99.90;;;;;;6283682;22;20014;-92
2022/03/18 10:12:44;;;;;;;20.65;6.78;;;10.60;99.90;;;;;;6282534;22;20003;-89
2022/03/18 10:15:18;;;;;;;31.60;5.93;;;10.90;99.90;;;;;;6283358;22;20006;-90
2022/03/18 10:17:50;;;;;;;20.92;6.47;;;11.10;99.90;;;;;;6283917;22;19999;-89
2022/03/18 10:20:34;;;;;;;35.20;9.38;;;11.40;99.90;;;;;;6283955;22;20007;-90
2022/03/18 10:23:17;;;;;;;24.42;7.40;;;11.60;99.90;;;;;;6310959;22;20078;-90
2022/03/18 10:25:53;;;;;;;29.00;6.10;;;11.80;99.90;;;;;;6283447;22;20038;-91
2022/03/18 10:28:47;;;;;;;27.80;6.45;;;12.10;99.90;;;;;;6283382;22;20003;-90
2022/03/18 10:31:19;;;;;;;27.38;7.13;;;12.20;99.90;;;;;;6287358;22;20007;-89
2022/03/18 10:37:04;;;;;;;22.17;6.32;;;12.70;99.90;;;;;;6313009;22;20038;-91
2022/03/18 10:39:36;;;;;;;23.20;6.07;;;13.00;99.90;;;;;;6288139;22;19999;-89
2022/03/18 10:42:10;;;;;;;28.25;6.80;;;13.20;99.90;;;;;;6295202;22;20018;-91
2022/03/18 10:44:54;;;;;;;30.35;6.65;;;13.40;99.90;;;;;;6294882;22;20439;-90
2022/03/18 10:47:26;;;;;;;22.52;5.70;;;13.60;99.90;;;;;;6285664;22;20078;-90
2022/03/18 10:50:10;;;;;;;23.23;6.32;;;13.80;99.90;;;;;;6285565;22;20442;-90
2022/03/18 10:52:48;;;;;;;24.40;5.85;;;14.10;99.90;;;;;;6288799;22;20360;-91
2022/03/18 10:55:23;;;;;;;19.52;4.97;;;14.40;99.90;;;;;;6284125;22;20003;-90
2022/03/18 10:57:50;;;;;;;23.30;5.80;;;14.70;99.90;;;;;;6286250;22;20049;-90
2022/03/18 11:00:17;;;;;;;23.73;4.32;;;14.80;99.60;;;;;;6294585;22;20062;-90
2022/03/18 11:02:47;;;;;;;22.58;4.15;;;15.00;98.00;;;;;;6294165;22;20017;-90
2022/03/18 11:05:14;;;;;;;20.58;3.85;;;15.10;96.00;;;;;;6294935;22;19999;-89
2022/03/18 11:07:43;;;;;;;15.50;4.68;;;15.10;94.30;;;;;;6296116;22;20094;-90
2022/03/18 11:13:02;;;;;;;24.63;4.50;;;15.20;92.90;;;;;;6325522;22;20027;-89
2022/03/18 11:15:29;;;;;;;;;;;15.40;91.70;;;;;;6297703;22;20015;-89
2022/03/18 11:17:56;;;;;;;21.17;4.43;;;15.40;90.40;;;;;;6291923;22;19910;-91
2022/03/18 11:20:27;;;;;;;21.38;4.50;;;15.50;90.30;;;;;;6293379;22;20003;-89
2022/03/18 11:22:54;;;;;;;24.48;4.20;;;15.60;89.80;;;;;;6289408;22;20068;-92
2022/03/18 11:25:22;;;;;;;17.90;5.00;;;15.80;89.30;;;;;;6288427;22;20003;-90
2022/03/18 11:27:48;;;;;;;17.63;3.92;;;16.00;88.30;;;;;;6282244;22;20011;-90
2022/03/18 11:30:25;;;;;;;16.17;3.78;;;16.20;87.50;;;;;;6284113;22;20009;-90
2022/03/18 11:33:06;;;;;;;20.27;4.47;;;16.40;85.80;;;;;;6283550;22;20014;-91
2022/03/18 11:35:52;;;;;;;17.88;4.28;;;16.60;84.50;;;;;;6283524;22;20008;-90
2022/03/18 11:38:28;;;;;;;16.90;3.78;;;16.60;83.10;;;;;;6282559;22;20003;-92
2022/03/18 11:40:57;;;;;;;20.00;4.57;;;16.70;82.80;;;;;;6284993;22;20431;-91
2022/03/18 11:43:36;;;;;;;17.55;3.60;;;16.70;81.90;;;;;;6287374;22;20015;-90
2022/03/18 11:46:17;;;;;;;18.83;4.15;;;16.60;80.60;;;;;;6298568;22;20003;-90
2022/03/18 11:48:44;;;;;;;;;;;16.70;81.10;;;;;;6302505;22;20010;-90
2022/03/18 11:51:32;;;;;;;27.23;4.53;;;16.80;80.90;;;;;;6301606;22;19903;-91
2022/03/18 11:54:03;;;;;;;22.35;5.55;;;17.00;79.80;;;;;;6294842;22;20006;-91
2022/03/18 11:56:50;;;;;;;21.00;4.57;;;17.00;79.30;;;;;;6292867;22;20045;-92
2022/03/18 11:59:25;;;;;;;23.27;3.90;;;17.10;79.10;;;;;;6289961;22;20025;-90
2022/03/18 12:01:51;;;;;;;19.25;4.38;;;17.20;78.20;;;;;;6284621;22;20007;-91
2022/03/18 12:04:46;;;;;;;21.67;4.05;;;17.20;77.90;;;;;;6282496;22;20047;-91
2022/03/18 12:07:24;;;;;;;24.55;4.75;;;17.30;78.20;;;;;;6282432;22;20007;-89
2022/03/18 12:10:10;;;;;;;14.65;3.63;;;17.60;77.50;;;;;;6281469;22;19999;-90
2022/03/18 12:12:41;;;;;;;14.20;3.92;;;17.70;76.50;;;;;;6310785;22;20415;-90
2022/03/18 12:15:09;;;;;;;14.45;4.13;;;17.70;76.00;;;;;;6283378;22;20017;-89
2022/03/18 12:17:43;;;;;;;23.92;4.85;;;17.70;75.40;;;;;;6282987;22;20025;-90
2022/03/18 12:20:17;;;;;;;19.77;4.75;;;17.80;75.90;;;;;;6281752;22;20026;-91
2022/03/18 12:22:43;;;;;;;19.05;3.85;;;18.00;75.00;;;;;;6276655;22;20007;-90
2022/03/18 12:25:10;;;;;;;15.13;3.50;;;18.00;74.80;;;;;;6282613;22;20018;-91
2022/03/18 12:27:38;;;;;;;17.65;3.58;;;18.00;74.20;;;;;;6284315;22;20061;-92
2022/03/18 12:30:05;;;;;;;17.55;3.88;;;18.10;74.30;;;;;;6282620;22;20014;-90
2022/03/18 12:32:32;;;;;;;19.58;5.07;;;18.00;73.90;;;;;;6281641;22;20068;-89
2022/03/18 12:35:00;;;;;;;20.38;4.00;;;17.90;73.90;;;;;;6282234;22;20053;-90
2022/03/18 12:37:32;;;;;;;20.98;4.63;;;17.90;74.60;;;;;;6309145;22;20000;-91
2022/03/18 12:40:15;;;;;;;15.50;4.47;;;18.10;74.80;;;;;;6282653;22;20030;-91
2022/03/18 12:42:52;;;;;;;14.02;3.95;;;18.30;74.20;;;;;;6282081;22;20015;-90
2022/03/18 12:45:28;;;;;;;17.90;3.47;;;18.70;73.10;;;;;;6281718;22;20011;-91
2022/03/18 12:47:56;;;;;;;23.00;4.45;;;18.80;71.80;;;;;;6282962;22;20124;-91
2022/03/18 12:50:31;;;;;;;17.92;4.53;;;18.80;71.70;;;;;;6281532;22;20003;-92
2022/03/18 12:52:57;;;;;;;20.38;4.72;;;18.80;70.80;;;;;;6282252;22;19999;-93
2022/03/18 12:55:24;;;;;;;19.42;3.65;;;18.50;70.40;;;;;;6289857;22;20003;-92
2022/03/18 12:57:51;;;;;;;24.40;3.97;;;18.40;71.30;;;;;;6283190;22;20029;-92
2022/03/18 13:00:18;;;;;;;19.40;3.10;;;18.50;71.40;;;;;;6283108;22;20011;-92
2022/03/18 13:02:44;;;;;;;17.60;4.05;;;18.60;70.60;;;;;;6285573;22;20011;-92
2022/03/18 13:05:15;;;;;;;19.98;4.05;;;18.60;70.80;;;;;;6285580;22;20027;-91
2022/03/18 13:07:40;;;;;;;;;;;18.60;70.80;;;;;;6287680;22;19999;-91
2022/03/18 13:10:07;;;;;;;16.55;3.60;;;18.60;69.80;;;;;;6287138;22;19938;-90